Strona główna
METAR-TAF:

METAR-TAF

Lotnisko :

Port lotniczy Kraków-Balice

Kraków, Polska

Szerokość geograficzna: 50-05N, Długość geograficzna: 019-48E, wysokość: 237 m

Aktualna obserwacja pogody

Raport powstał 20 minut temu, godzina 06:30 UTC
Wiatr 7 kt od północny wschód
Temperatura 4°C
Wilgotność 70%
Ciśnienie 1020 hPa
Widzialność 10 km lub więcej
Przerywane chmury na wysokości 3300 ft

METAR: EPKK 230630Z 05007KT 9999 BKN033 04/M01 Q1020

czas: 08:50 (06:50 UTC)

Prognoza

Raport powstał 1 godzina i 20 minut temu, godzina 05:30 UTC
Prognoza ważna od 23 godzina 06 UTC do 24 godzina 06 UTC
Wiatr 2 kt z kierunków zmiennych
Widzialność 10 km lub więcej
Przerywane chmury na wysokości 3000 ft
Stopniowe zmiany
od 23 godzina 06 UTC do 23 godzina 09 UTC
Wiatr 10 kt od wschód

TAF: EPKK 230530Z 2306/2406 VRB02KT 9999 BKN030 BECMG 2306/2309 08010KT

Obserwacja i prognoza pogody dla ponad 4000 lotnisk (raport METAR i TAF).

Dostępne stacje oznaczono żółtymi i czerwonymi punktami na mapie.

Najedź kursorem aby zobaczyć nazwę stacji.

Kliknij aby zobaczyć obserwacje i prognozy pogody.

Aby zmienić mapę: kliknij na zielony przycisk z czarnym krzyżykiem, aby powiększyć; na zielony przycisk z myślnikiem, aby pomniejszyć; na zielone strzałki, aby przejść do map sąsiednich.


METAR-TAF: